Time;durP1;ratioP1;P1;durP2;ratioP2;P2;SDS_P1;SDS_P2;PMS_P1;PMS_P2;Temp;Humidity;BMP_temperature;BMP_pressure;BME280_temperature;BME280_humidity;BME280_pressure;Samples;Min_cycle;Max_cycle;Signal;HPM_P1;HPM_P2
2022/09/27 00:00:24;;;;;;;6.38;4.38;;;10.40;99.90;;;;;;5053776;28;20052;-79
2022/09/27 00:02:50;;;;;;;6.43;4.72;;;10.40;99.90;;;;;;5035566;28;20061;-79
2022/09/27 00:05:16;;;;;;;7.68;4.65;;;10.30;99.90;;;;;;5052882;28;20029;-78
2022/09/27 00:07:43;;;;;;;6.30;4.20;;;10.30;99.90;;;;;;5035831;28;20033;-78
2022/09/27 00:10:09;;;;;;;8.43;5.00;;;10.30;99.90;;;;;;5053968;28;20040;-78
2022/09/27 00:12:35;;;;;;;8.00;5.18;;;10.30;99.90;;;;;;5035898;28;20025;-78
2022/09/27 00:15:01;;;;;;;10.13;4.55;;;10.30;99.90;;;;;;5035388;28;20056;-78
2022/09/27 00:17:28;;;;;;;8.40;4.57;;;10.30;99.90;;;;;;5035699;28;20068;-78
2022/09/27 00:19:57;;;;;;;4.00;3.60;;;10.20;99.90;;;;;;5053726;28;20022;-79
2022/09/27 00:22:23;;;;;;;4.93;3.90;;;10.10;99.90;;;;;;5053544;28;20033;-78
2022/09/27 00:24:49;;;;;;;5.25;4.00;;;10.10;99.90;;;;;;5053837;28;20033;-78
2022/09/27 00:27:16;;;;;;;4.68;3.97;;;10.10;99.90;;;;;;5053146;28;20384;-78
2022/09/27 00:29:42;;;;;;;7.15;4.93;;;10.10;99.90;;;;;;5035657;28;20056;-77
2022/09/27 00:32:08;;;;;;;6.53;4.43;;;10.10;99.90;;;;;;5035613;28;20461;-78
2022/09/27 00:34:33;;;;;;;6.95;4.50;;;10.10;99.90;;;;;;5053416;28;20028;-78
2022/09/27 00:36:59;;;;;;;6.15;4.35;;;10.10;99.90;;;;;;5053171;28;20060;-78
2022/09/27 00:39:25;;;;;;;6.63;5.03;;;10.20;99.90;;;;;;5053356;28;20084;-78
2022/09/27 00:41:50;;;;;;;7.97;6.00;;;10.10;99.90;;;;;;5053064;28;20493;-78
2022/09/27 00:44:25;;;;;;;6.07;4.68;;;10.10;99.90;;;;;;5053082;28;20028;-78
2022/09/27 00:47:17;;;;;;;7.78;4.07;;;10.10;99.90;;;;;;5035358;28;20377;-78
2022/09/27 00:49:46;;;;;;;5.68;4.55;;;10.10;99.90;;;;;;5035674;28;20503;-78
2022/09/27 00:52:28;;;;;;;6.47;4.40;;;10.00;99.90;;;;;;5053203;28;20037;-78
2022/09/27 00:55:05;;;;;;;6.82;4.82;;;10.00;99.90;;;;;;5053586;28;20025;-78
2022/09/27 00:57:32;;;;;;;6.80;4.70;;;10.00;99.90;;;;;;5035759;28;20385;-78
2022/09/27 01:00:08;;;;;;;6.15;4.00;;;9.90;99.90;;;;;;5053368;28;20056;-78
2022/09/27 01:02:37;;;;;;;7.03;4.40;;;9.90;99.90;;;;;;5035237;28;20512;-77
2022/09/27 01:05:05;;;;;;;8.82;4.80;;;9.80;99.90;;;;;;5054135;28;20025;-78
2022/09/27 01:07:31;;;;;;;7.20;5.00;;;9.80;99.90;;;;;;5056983;28;20029;-79
2022/09/27 01:09:57;;;;;;;5.72;5.00;;;9.80;99.90;;;;;;5056547;28;20380;-77
2022/09/27 01:12:56;;;;;;;6.72;5.43;;;9.80;99.90;;;;;;5038551;28;20075;-77
2022/09/27 01:16:08;;;;;;;6.82;4.45;;;9.80;99.90;;;;;;5053395;28;20037;-79
2022/09/27 01:18:55;;;;;;;12.23;4.90;;;9.80;99.90;;;;;;5048609;28;20029;-77
2022/09/27 01:22:05;;;;;;;8.48;5.05;;;9.80;99.90;;;;;;5056625;28;20096;-77
2022/09/27 01:25:20;;;;;;;7.50;5.40;;;9.80;99.90;;;;;;5019702;28;20115;-77
2022/09/27 01:28:13;;;;;;;9.73;5.10;;;9.70;99.90;;;;;;4969352;28;20046;-78
2022/09/27 01:30:52;;;;;;;7.20;5.30;;;9.70;99.90;;;;;;5056543;28;20024;-77
2022/09/27 01:33:21;;;;;;;;;;;9.70;99.90;;;;;;5057031;28;20143;-77
2022/09/27 01:35:57;;;;;;;6.43;4.47;;;9.60;99.90;;;;;;5056251;28;19905;-77
2022/09/27 01:38:34;;;;;;;7.32;5.10;;;9.60;99.90;;;;;;5038635;28;20457;-78
2022/09/27 01:41:26;;;;;;;6.88;4.97;;;9.70;99.90;;;;;;5055738;28;20029;-77
2022/09/27 01:43:51;;;;;;;7.22;5.30;;;9.70;99.90;;;;;;5057646;28;20095;-78
2022/09/27 01:46:22;;;;;;;9.18;5.03;;;9.60;99.90;;;;;;5039626;28;20453;-77
2022/09/27 01:48:50;;;;;;;6.95;4.70;;;9.60;99.90;;;;;;5057464;28;20032;-77
2022/09/27 01:51:25;;;;;;;9.20;5.20;;;9.50;99.90;;;;;;5039894;28;20029;-77
2022/09/27 01:53:53;;;;;;;10.68;4.93;;;9.50;99.90;;;;;;5039885;28;20029;-77
2022/09/27 01:56:43;;;;;;;7.50;4.70;;;9.50;99.90;;;;;;5040039;28;20096;-77
2022/09/27 01:59:17;;;;;;;6.60;4.68;;;9.50;99.90;;;;;;5040295;28;20731;-77
2022/09/27 02:01:47;;;;;;;9.65;5.25;;;9.50;99.90;;;;;;5039316;28;20036;-77
2022/09/27 02:04:18;;;;;;;11.40;5.60;;;9.50;99.90;;;;;;5057575;28;20503;-77
2022/09/27 02:06:48;;;;;;;10.88;5.40;;;9.40;99.90;;;;;;5058967;28;20479;-77
2022/09/27 02:09:18;;;;;;;9.70;5.60;;;9.40;99.90;;;;;;5058850;28;20044;-77
2022/09/27 02:11:49;;;;;;;8.52;5.28;;;9.40;99.90;;;;;;5058140;28;20036;-77
2022/09/27 02:14:54;;;;;;;7.60;5.28;;;9.40;99.90;;;;;;5075879;28;20017;-77
2022/09/27 02:17:32;;;;;;;11.85;6.97;;;9.40;99.90;;;;;;4996651;28;20060;-77
2022/09/27 02:20:29;;;;;;;6.85;5.10;;;9.40;99.90;;;;;;5068418;28;20043;-77
2022/09/27 02:23:07;;;;;;;9.63;5.47;;;9.40;99.90;;;;;;5076397;28;20028;-76
2022/09/27 02:25:49;;;;;;;9.63;4.88;;;9.40;99.90;;;;;;5057705;28;20419;-77
2022/09/27 02:28:36;;;;;;;10.20;5.43;;;9.40;99.90;;;;;;5075762;28;20082;-76
2022/09/27 02:31:02;;;;;;;8.90;5.57;;;9.40;99.90;;;;;;5075262;28;20111;-78
2022/09/27 02:33:49;;;;;;;6.47;5.15;;;9.40;99.90;;;;;;5057603;28;20456;-76
2022/09/27 02:36:16;;;;;;;7.60;4.60;;;9.50;99.90;;;;;;5075009;28;20079;-77
2022/09/27 02:38:43;;;;;;;5.78;4.70;;;9.40;99.90;;;;;;5074719;28;20123;-77
2022/09/27 02:41:20;;;;;;;7.88;5.13;;;9.40;99.90;;;;;;5075319;28;20029;-77
2022/09/27 02:43:53;;;;;;;6.78;5.43;;;9.50;99.90;;;;;;5074033;28;20032;-77
2022/09/27 02:46:30;;;;;;;7.78;4.60;;;9.50;99.90;;;;;;5075156;28;20031;-77
2022/09/27 02:49:17;;;;;;;6.57;4.30;;;9.50;99.90;;;;;;5074973;28;20029;-77
2022/09/27 02:52:08;;;;;;;8.80;5.63;;;9.50;99.90;;;;;;5058046;28;20380;-77
2022/09/27 02:54:51;;;;;;;4.55;4.15;;;9.60;99.90;;;;;;5074988;28;20047;-77
2022/09/27 02:57:25;;;;;;;7.05;4.25;;;9.60;99.90;;;;;;5058016;28;20035;-77
2022/09/27 03:00:06;;;;;;;7.63;5.25;;;9.50;99.90;;;;;;5057061;28;20103;-77
2022/09/27 03:02:34;;;;;;;9.52;4.80;;;9.50;99.90;;;;;;5052413;28;20396;-77
2022/09/27 03:05:16;;;;;;;9.43;4.72;;;9.50;99.90;;;;;;5037297;28;20029;-77
2022/09/27 03:07:42;;;;;;;6.55;4.82;;;9.50;99.90;;;;;;5054897;28;20104;-77
2022/09/27 03:10:22;;;;;;;6.55;4.90;;;9.50;99.90;;;;;;5055164;28;20461;-77
2022/09/27 03:12:49;;;;;;;7.78;4.65;;;9.50;99.90;;;;;;5054956;28;20028;-77
2022/09/27 03:15:15;;;;;;;8.35;4.57;;;9.50;99.90;;;;;;5037292;28;20029;-78
2022/09/27 03:17:41;;;;;;;12.48;4.93;;;9.50;99.90;;;;;;5036581;28;20036;-77
2022/09/27 03:20:07;;;;;;;8.20;4.38;;;9.50;99.90;;;;;;5036205;28;20025;-76
2022/09/27 03:22:34;;;;;;;6.53;4.70;;;9.50;99.90;;;;;;5036551;28;20116;-77
2022/09/27 03:25:00;;;;;;;5.05;4.55;;;9.50;99.90;;;;;;5036490;28;20021;-76
2022/09/27 03:27:25;;;;;;;5.07;4.53;;;9.40;99.90;;;;;;5036231;28;20457;-76
2022/09/27 03:29:51;;;;;;;13.80;5.22;;;9.40;99.90;;;;;;5054236;28;20032;-77
2022/09/27 03:32:17;;;;;;;6.05;4.20;;;9.40;99.90;;;;;;5053927;28;20025;-77
2022/09/27 03:35:02;;;;;;;7.05;4.20;;;9.40;99.90;;;;;;5054226;28;20449;-77
2022/09/27 03:37:28;;;;;;;7.55;4.40;;;9.40;99.90;;;;;;5054906;28;20033;-77
2022/09/27 03:39:54;;;;;;;5.10;4.10;;;9.40;99.90;;;;;;5052948;28;20103;-77
2022/09/27 03:42:20;;;;;;;7.20;4.38;;;9.40;99.90;;;;;;5054233;28;20021;-78
2022/09/27 03:44:45;;;;;;;4.85;4.13;;;9.40;99.90;;;;;;5036213;28;20517;-77
2022/09/27 03:47:11;;;;;;;6.60;4.45;;;9.40;99.90;;;;;;5054140;28;20033;-77
2022/09/27 03:49:36;;;;;;;9.75;4.70;;;9.40;99.90;;;;;;5054159;28;20025;-77
2022/09/27 03:52:02;;;;;;;7.18;4.32;;;9.40;99.90;;;;;;5036200;28;20040;-78
2022/09/27 03:54:28;;;;;;;6.35;3.65;;;9.40;99.90;;;;;;5036007;28;20174;-77
2022/09/27 03:56:53;;;;;;;5.22;4.22;;;9.40;99.90;;;;;;5054139;28;20028;-77
2022/09/27 03:59:19;;;;;;;8.13;3.92;;;9.40;99.90;;;;;;5053909;28;20018;-77
2022/09/27 04:01:45;;;;;;;6.80;4.25;;;9.40;99.90;;;;;;5053879;28;20032;-77
2022/09/27 04:04:10;;;;;;;6.40;3.90;;;9.40;99.90;;;;;;5056590;28;20124;-78
2022/09/27 04:06:36;;;;;;;6.45;4.25;;;9.40;99.90;;;;;;5036079;28;20029;-78
2022/09/27 04:09:03;;;;;;;6.75;4.28;;;9.40;99.90;;;;;;5053941;28;20060;-76
2022/09/27 04:11:28;;;;;;;6.50;4.18;;;9.50;99.90;;;;;;5054376;28;20423;-78
2022/09/27 04:13:55;;;;;;;5.38;3.80;;;9.50;99.90;;;;;;5053846;28;20025;-78
2022/09/27 04:16:21;;;;;;;6.07;4.00;;;9.50;99.90;;;;;;5036155;28;20379;-77
2022/09/27 04:18:46;;;;;;;6.15;4.57;;;9.50;99.90;;;;;;5036205;28;20124;-79
2022/09/27 04:21:12;;;;;;;6.47;3.78;;;9.60;99.90;;;;;;5052313;28;20064;-81
2022/09/27 04:23:38;;;;;;;5.05;4.00;;;9.60;99.90;;;;;;5053868;28;20092;-80
2022/09/27 04:26:03;;;;;;;6.93;4.05;;;9.70;99.90;;;;;;5052794;28;20116;-78
2022/09/27 04:28:30;;;;;;;9.88;5.05;;;9.60;99.90;;;;;;5035987;28;20056;-77
2022/09/27 04:30:56;;;;;;;7.97;4.25;;;9.70;99.90;;;;;;5053530;28;20048;-76
2022/09/27 04:33:22;;;;;;;7.95;4.05;;;9.70;99.90;;;;;;5053478;28;20374;-78
2022/09/27 04:38:32;;;;;;;5.10;3.88;;;9.70;99.90;;;;;;5053137;28;20091;-76
2022/09/27 04:41:00;;;;;;;6.70;4.15;;;9.70;99.90;;;;;;5056160;28;20025;-75
2022/09/27 04:43:26;;;;;;;6.30;4.13;;;9.70;99.90;;;;;;5057174;28;20108;-76
2022/09/27 04:45:52;;;;;;;4.70;3.45;;;9.80;99.90;;;;;;5057635;28;20035;-76
2022/09/27 04:48:18;;;;;;;4.35;3.90;;;9.80;99.90;;;;;;5057182;28;20399;-78
2022/09/27 04:50:43;;;;;;;4.78;4.18;;;9.80;99.90;;;;;;5057160;28;20032;-78
2022/09/27 04:53:13;;;;;;;6.10;3.97;;;9.80;99.90;;;;;;5039741;28;20411;-78
2022/09/27 04:55:43;;;;;;;8.63;4.25;;;9.80;99.90;;;;;;5056955;28;20021;-78
2022/09/27 04:58:08;;;;;;;8.25;4.65;;;9.80;99.90;;;;;;5039824;28;20511;-77
2022/09/27 05:00:35;;;;;;;8.30;3.72;;;9.90;99.90;;;;;;5038974;28;20033;-78
2022/09/27 05:03:00;;;;;;;7.95;3.80;;;9.90;99.90;;;;;;5038666;28;20047;-78
2022/09/27 05:05:26;;;;;;;11.57;4.43;;;9.90;99.90;;;;;;5038866;28;20111;-77
2022/09/27 05:07:58;;;;;;;7.57;4.10;;;10.00;99.90;;;;;;5055439;28;20028;-78
2022/09/27 05:10:24;;;;;;;9.02;4.82;;;10.00;99.90;;;;;;5039472;28;20132;-77
2022/09/27 05:12:50;;;;;;;6.13;4.18;;;10.00;99.90;;;;;;5039115;28;20021;-77
2022/09/27 05:15:16;;;;;;;6.68;4.35;;;10.00;99.90;;;;;;5038372;28;20119;-76
2022/09/27 05:17:41;;;;;;;6.22;4.68;;;10.10;99.90;;;;;;5056500;28;20029;-77
2022/09/27 05:20:09;;;;;;;10.35;4.47;;;10.10;99.90;;;;;;5056360;28;20071;-77
2022/09/27 05:22:35;;;;;;;5.25;4.75;;;10.20;99.90;;;;;;5056411;28;20025;-77
2022/09/27 05:25:00;;;;;;;6.03;4.15;;;10.20;99.90;;;;;;5056048;28;20040;-77
2022/09/27 05:27:26;;;;;;;6.95;4.38;;;10.20;99.90;;;;;;5038731;28;20110;-77
2022/09/27 05:29:52;;;;;;;8.15;4.45;;;10.20;99.90;;;;;;5056315;28;20409;-77
2022/09/27 05:32:17;;;;;;;7.10;4.38;;;10.20;99.90;;;;;;5056219;28;20021;-77
2022/09/27 05:34:43;;;;;;;8.45;4.55;;;10.30;99.90;;;;;;5038262;28;20032;-77
2022/09/27 05:37:09;;;;;;;22.83;6.18;;;10.30;99.90;;;;;;5038212;28;20032;-77
2022/09/27 05:39:34;;;;;;;5.60;4.72;;;10.30;99.90;;;;;;5038099;28;20098;-77
2022/09/27 05:42:01;;;;;;;6.18;4.97;;;10.40;99.90;;;;;;5055982;28;20055;-77
2022/09/27 05:44:27;;;;;;;11.25;5.28;;;10.40;99.90;;;;;;5055922;28;20025;-76
2022/09/27 05:46:52;;;;;;;6.57;5.15;;;10.50;99.90;;;;;;5037905;28;20056;-76
2022/09/27 05:49:19;;;;;;;9.77;6.78;;;10.50;99.90;;;;;;5038249;28;20033;-77
2022/09/27 05:51:44;;;;;;;8.23;5.55;;;10.60;99.90;;;;;;5037840;28;20033;-77
2022/09/27 05:54:10;;;;;;;6.72;4.95;;;10.60;99.90;;;;;;5037954;28;20355;-78
2022/09/27 05:56:35;;;;;;;7.35;4.13;;;10.70;99.90;;;;;;5038016;28;20116;-79
2022/09/27 05:59:01;;;;;;;6.10;4.15;;;10.70;99.90;;;;;;5057004;28;20029;-78
2022/09/27 06:01:27;;;;;;;9.25;4.50;;;10.70;99.90;;;;;;5039620;28;20028;-77
2022/09/27 06:03:53;;;;;;;5.30;4.43;;;10.70;99.90;;;;;;5056622;28;20515;-78
2022/09/27 06:06:21;;;;;;;8.40;4.72;;;10.70;99.90;;;;;;5038708;28;20469;-78
2022/09/27 06:08:48;;;;;;;7.20;4.60;;;10.70;99.90;;;;;;5038106;28;20115;-78
2022/09/27 06:11:14;;;;;;;5.63;4.30;;;10.70;99.90;;;;;;5055339;28;20453;-78
2022/09/27 06:13:40;;;;;;;5.10;4.20;;;10.80;99.90;;;;;;5055573;28;20021;-78
2022/09/27 06:16:09;;;;;;;6.93;4.60;;;10.80;99.90;;;;;;5037670;28;20063;-77
2022/09/27 06:18:35;;;;;;;7.40;5.00;;;10.90;99.90;;;;;;5037581;28;20473;-78
2022/09/27 06:21:02;;;;;;;9.93;4.53;;;10.90;99.90;;;;;;5055599;28;20437;-78
2022/09/27 06:23:32;;;;;;;7.93;4.80;;;11.00;99.90;;;;;;5055390;28;20449;-78
2022/09/27 06:26:03;;;;;;;5.78;4.50;;;11.10;99.90;;;;;;5055238;28;20032;-78
2022/09/27 06:28:29;;;;;;;7.55;5.28;;;11.20;99.90;;;;;;5037474;28;20123;-78
2022/09/27 06:30:55;;;;;;;13.52;6.38;;;11.30;99.90;;;;;;5037356;28;20067;-79
2022/09/27 06:33:21;;;;;;;8.85;5.88;;;11.40;99.90;;;;;;5055164;28;20048;-78
2022/09/27 06:35:48;;;;;;;7.13;5.30;;;11.50;99.90;;;;;;5055055;28;20104;-77
2022/09/27 06:38:15;;;;;;;6.80;5.30;;;11.60;99.90;;;;;;5037168;28;20039;-79
2022/09/27 06:40:45;;;;;;;7.90;5.18;;;11.70;99.90;;;;;;5037207;28;20033;-78
2022/09/27 06:43:13;;;;;;;8.50;4.85;;;11.80;99.90;;;;;;5037202;28;20033;-79
2022/09/27 06:45:39;;;;;;;8.10;4.65;;;11.80;99.90;;;;;;5036967;28;20519;-79
2022/09/27 06:48:06;;;;;;;8.18;4.90;;;11.90;99.90;;;;;;5054650;28;20025;-78
2022/09/27 06:50:35;;;;;;;5.90;4.53;;;11.90;99.90;;;;;;5055045;28;20029;-78
2022/09/27 06:53:01;;;;;;;5.70;4.68;;;11.90;99.90;;;;;;5054919;28;20377;-78
2022/09/27 06:55:27;;;;;;;6.47;4.45;;;12.00;99.90;;;;;;5037168;28;20055;-78
2022/09/27 07:00:42;;;;;;;5.63;3.90;;;12.10;99.90;;;;;;5054848;28;20039;-78
2022/09/27 07:03:10;;;;;;;7.22;4.28;;;12.10;99.90;;;;;;5054184;28;20421;-78
2022/09/27 07:05:36;;;;;;;7.37;3.87;;;12.10;99.90;;;;;;5053497;28;20029;-78
2022/09/27 07:08:03;;;;;;;5.88;4.18;;;12.10;99.90;;;;;;5054525;28;20029;-78
2022/09/27 07:10:32;;;;;;;8.02;3.70;;;12.10;99.90;;;;;;5036628;28;20064;-78
2022/09/27 07:13:04;;;;;;;9.10;4.85;;;12.10;99.90;;;;;;5054531;28;20025;-79
2022/09/27 07:15:31;;;;;;;12.75;4.80;;;12.10;99.90;;;;;;5054991;28;20032;-78
2022/09/27 07:17:58;;;;;;;9.93;4.70;;;12.20;99.90;;;;;;5036702;28;20028;-78
2022/09/27 07:20:25;;;;;;;6.78;4.40;;;12.10;99.90;;;;;;5054296;28;20021;-78
2022/09/27 07:22:50;;;;;;;8.25;5.25;;;12.20;99.90;;;;;;5054024;28;20523;-79
2022/09/27 07:25:16;;;;;;;8.48;4.43;;;12.20;99.90;;;;;;5036352;28;20029;-79
2022/09/27 07:27:42;;;;;;;10.15;4.68;;;12.20;99.90;;;;;;5036407;28;20330;-78
2022/09/27 07:30:09;;;;;;;9.45;4.72;;;12.20;99.90;;;;;;5036386;28;20563;-78
2022/09/27 07:32:35;;;;;;;7.15;4.82;;;12.30;99.90;;;;;;5054068;28;20365;-78
2022/09/27 07:35:06;;;;;;;8.75;5.20;;;12.30;99.90;;;;;;5052784;28;20117;-78
2022/09/27 07:37:32;;;;;;;9.75;5.40;;;12.30;99.90;;;;;;5054176;28;20029;-78
2022/09/27 07:39:59;;;;;;;7.55;5.57;;;12.30;99.90;;;;;;5036487;28;20021;-78
2022/09/27 07:42:25;;;;;;;8.77;5.47;;;12.40;99.90;;;;;;5052677;28;20025;-78
2022/09/27 07:44:51;;;;;;;8.98;5.93;;;12.40;99.90;;;;;;5036144;28;20071;-78
2022/09/27 07:47:18;;;;;;;9.48;6.00;;;12.40;99.90;;;;;;5036147;28;20041;-78
2022/09/27 07:49:44;;;;;;;8.88;5.95;;;12.40;99.90;;;;;;5052733;28;20078;-79
2022/09/27 07:52:09;;;;;;;10.10;6.32;;;12.40;99.90;;;;;;5053999;28;20021;-79
2022/09/27 07:54:36;;;;;;;9.68;6.20;;;12.40;99.90;;;;;;5036121;28;20384;-80
2022/09/27 07:57:02;;;;;;;13.75;6.25;;;12.30;99.90;;;;;;5054102;28;20025;-81
2022/09/27 07:59:28;;;;;;;9.95;5.88;;;12.30;99.90;;;;;;5036855;28;20040;-84
2022/09/27 08:01:54;;;;;;;7.03;5.75;;;10.80;99.90;;;;;;5020367;28;20102;-87
2022/09/27 08:04:20;;;;;;;9.50;5.70;;;12.20;99.90;;;;;;5054676;28;20066;-86
2022/09/27 08:06:46;;;;;;;7.97;5.07;;;12.20;99.90;;;;;;5054416;28;20109;-86
2022/09/27 08:09:12;;;;;;;7.95;5.80;;;12.10;99.90;;;;;;5054505;28;20111;-83
2022/09/27 08:11:37;;;;;;;11.80;6.18;;;12.00;99.90;;;;;;5036889;28;20031;-82
2022/09/27 08:14:03;;;;;;;12.15;7.70;;;12.00;99.90;;;;;;5053330;28;20059;-82
2022/09/27 08:16:32;;;;;;;10.90;7.07;;;11.90;99.90;;;;;;5039335;28;20408;-82
2022/09/27 08:18:57;;;;;;;17.00;7.73;;;11.90;99.90;;;;;;5041069;28;20033;-82
2022/09/27 08:21:23;;;;;;;8.93;7.32;;;11.90;99.90;;;;;;5040850;28;20075;-79
2022/09/27 08:23:49;;;;;;;10.55;7.97;;;11.90;99.90;;;;;;5057096;28;20377;-80
2022/09/27 08:26:14;;;;;;;8.98;6.90;;;11.80;99.90;;;;;;5039949;28;20021;-77
2022/09/27 08:28:40;;;;;;;8.75;6.85;;;11.80;99.90;;;;;;5039524;28;20029;-76
2022/09/27 08:31:05;;;;;;;10.85;7.70;;;11.80;99.90;;;;;;5057840;28;20032;-76
2022/09/27 08:33:31;;;;;;;10.25;7.88;;;11.80;99.90;;;;;;5056243;28;20507;-77
2022/09/27 08:35:57;;;;;;;11.70;7.50;;;11.80;99.90;;;;;;5056367;28;20055;-77
2022/09/27 08:38:22;;;;;;;9.13;7.22;;;11.80;99.90;;;;;;5039495;28;20033;-76
2022/09/27 08:41:05;;;;;;;10.77;7.78;;;11.80;99.90;;;;;;5039408;28;20029;-76
2022/09/27 08:43:49;;;;;;;8.48;6.70;;;11.80;99.90;;;;;;5039447;28;20075;-76
2022/09/27 08:46:41;;;;;;;12.85;7.32;;;11.80;99.90;;;;;;5056951;28;20096;-76
2022/09/27 08:49:25;;;;;;;7.05;5.70;;;11.90;99.90;;;;;;5057594;28;20040;-76
2022/09/27 08:51:53;;;;;;;7.63;5.93;;;11.90;99.90;;;;;;5039123;28;20469;-76
2022/09/27 08:54:21;;;;;;;12.30;7.88;;;11.80;99.90;;;;;;5056916;28;20119;-78
2022/09/27 08:56:48;;;;;;;9.60;6.57;;;11.90;99.90;;;;;;5039099;28;20028;-79
2022/09/27 08:59:21;;;;;;;5.38;4.70;;;12.10;99.90;;;;;;5039777;28;20120;-78
2022/09/27 09:01:53;;;;;;;6.30;5.00;;;12.00;99.90;;;;;;5039500;28;20022;-79
2022/09/27 09:04:31;;;;;;;6.10;4.88;;;12.00;99.90;;;;;;5056753;28;20513;-78
2022/09/27 09:07:15;;;;;;;8.23;3.92;;;12.10;99.90;;;;;;5039164;28;20029;-79
2022/09/27 09:10:10;;;;;;;4.65;4.13;;;12.10;99.90;;;;;;5038705;28;20071;-78
2022/09/27 09:12:50;;;;;;;7.43;5.20;;;12.10;99.90;;;;;;5039038;28;20055;-79
2022/09/27 09:15:19;;;;;;;7.35;5.47;;;12.20;99.90;;;;;;5057459;28;20067;-81
2022/09/27 09:18:04;;;;;;;7.93;6.13;;;12.20;99.90;;;;;;5057304;28;20032;-80
2022/09/27 09:21:02;;;;;;;8.15;5.95;;;12.20;99.90;;;;;;5039943;28;20268;-80
2022/09/27 09:23:50;;;;;;;9.10;5.65;;;12.10;99.90;;;;;;5021821;28;20032;-79
2022/09/27 09:26:27;;;;;;;8.88;6.07;;;12.20;99.90;;;;;;5038615;28;20372;-79
2022/09/27 09:29:04;;;;;;;9.60;6.82;;;12.20;99.90;;;;;;5039212;28;20561;-78
2022/09/27 09:31:59;;;;;;;6.60;5.35;;;12.20;99.90;;;;;;5038887;28;20075;-78
2022/09/27 09:34:31;;;;;;;9.82;6.70;;;12.30;99.90;;;;;;5056485;28;20033;-78
2022/09/27 09:37:04;;;;;;;9.45;6.55;;;12.40;99.90;;;;;;5038537;28;20032;-79
2022/09/27 09:39:39;;;;;;;5.30;4.78;;;12.60;99.90;;;;;;5038461;28;20366;-79
2022/09/27 09:42:13;;;;;;;3.78;3.38;;;12.60;99.90;;;;;;5056199;28;20104;-79
2022/09/27 09:44:55;;;;;;;4.53;3.20;;;12.50;99.90;;;;;;5038556;28;20076;-78
2022/09/27 09:47:27;;;;;;;4.38;2.55;;;12.60;99.90;;;;;;5055154;28;20362;-79
2022/09/27 09:49:59;;;;;;;4.38;3.63;;;12.60;99.90;;;;;;5038403;28;20036;-78
2022/09/27 09:52:31;;;;;;;4.03;2.35;;;12.70;99.90;;;;;;5038085;28;20029;-78
2022/09/27 09:55:12;;;;;;;2.40;2.20;;;12.80;99.90;;;;;;5055891;28;20051;-77
2022/09/27 09:57:54;;;;;;;2.22;1.83;;;13.00;99.90;;;;;;5038466;28;20028;-78
2022/09/27 10:00:20;;;;;;;3.63;1.60;;;13.30;99.90;;;;;;5037865;28;20092;-78
2022/09/27 10:02:47;;;;;;;2.72;1.33;;;13.40;99.90;;;;;;5055744;28;20049;-78
2022/09/27 10:05:20;;;;;;;2.10;1.42;;;13.50;99.90;;;;;;5055792;28;20032;-77
2022/09/27 10:07:47;;;;;;;1.23;1.13;;;13.70;99.90;;;;;;5037781;28;20029;-78
2022/09/27 10:10:16;;;;;;;1.00;1.00;;;13.80;99.90;;;;;;5055644;28;20439;-77
2022/09/27 10:12:43;;;;;;;4.25;1.33;;;14.00;99.90;;;;;;5055584;28;20025;-77
2022/09/27 10:15:15;;;;;;;1.88;1.40;;;14.20;99.90;;;;;;5038419;28;20159;-78
2022/09/27 10:17:46;;;;;;;1.80;1.20;;;14.50;99.90;;;;;;5038871;28;20182;-78
2022/09/27 10:20:34;;;;;;;1.38;1.25;;;14.60;99.90;;;;;;5039162;28;20523;-78
2022/09/27 10:23:15;;;;;;;1.42;1.10;;;14.80;99.90;;;;;;5056424;28;20466;-78
2022/09/27 10:25:52;;;;;;;1.42;1.33;;;14.90;99.90;;;;;;5037595;28;20037;-77
2022/09/27 10:28:50;;;;;;;0.95;0.60;;;15.00;99.90;;;;;;5037790;28;20040;-78
2022/09/27 10:31:19;;;;;;;3.65;1.17;;;15.00;99.90;;;;;;5022083;28;20037;-78
2022/09/27 10:33:58;;;;;;;2.00;0.82;;;15.00;99.90;;;;;;5053753;28;20028;-77
2022/09/27 10:36:31;;;;;;;2.97;1.30;;;15.00;99.90;;;;;;5037104;28;20115;-78
2022/09/27 10:39:03;;;;;;;0.50;0.50;;;15.10;99.90;;;;;;5036274;28;20025;-77
2022/09/27 10:41:39;;;;;;;1.00;0.90;;;15.10;99.90;;;;;;5037177;28;20021;-77
2022/09/27 10:44:24;;;;;;;2.08;0.90;;;15.20;99.90;;;;;;5036715;28;20021;-78
2022/09/27 10:46:54;;;;;;;2.63;1.02;;;15.70;99.90;;;;;;5053338;28;20456;-78
2022/09/27 10:49:34;;;;;;;3.17;0.68;;;15.90;99.90;;;;;;5036923;28;20028;-78
2022/09/27 10:52:15;;;;;;;0.70;0.70;;;16.20;99.90;;;;;;5053962;28;20025;-79
2022/09/27 10:54:42;;;;;;;0.82;0.82;;;16.30;99.90;;;;;;5036995;28;20494;-78
2022/09/27 10:57:31;;;;;;;0.77;0.77;;;16.10;99.90;;;;;;5054876;28;20504;-78
2022/09/27 11:00:03;;;;;;;;;;;15.80;99.90;;;;;;5044597;28;20041;-78
2022/09/27 11:02:36;;;;;;;1.42;0.70;;;15.70;99.90;;;;;;5054194;28;19905;-78
2022/09/27 11:05:11;;;;;;;0.82;0.82;;;15.60;99.90;;;;;;5054193;28;20036;-77
2022/09/27 11:07:56;;;;;;;3.47;0.60;;;15.40;99.90;;;;;;5037062;28;20484;-78
2022/09/27 11:10:26;;;;;;;0.95;0.75;;;15.20;99.90;;;;;;5054606;28;20025;-78
2022/09/27 11:13:11;;;;;;;3.10;0.95;;;15.20;99.90;;;;;;5036076;28;20021;-79
2022/09/27 11:15:51;;;;;;;0.57;0.57;;;15.30;99.90;;;;;;5054382;28;20021;-78
2022/09/27 11:18:42;;;;;;;1.33;0.65;;;15.30;99.90;;;;;;5036446;28;20478;-79
2022/09/27 11:21:31;;;;;;;2.13;0.77;;;15.10;99.90;;;;;;5036864;28;20021;-78
2022/09/27 11:24:24;;;;;;;1.42;0.57;;;14.90;99.90;;;;;;5036858;28;20028;-78
2022/09/27 11:27:11;;;;;;;0.52;0.52;;;14.90;99.90;;;;;;5036332;28;20059;-78
2022/09/27 11:29:53;;;;;;;0.70;0.70;;;14.80;99.90;;;;;;5053763;28;20033;-78
2022/09/27 11:32:27;;;;;;;2.15;0.90;;;14.80;99.90;;;;;;5036432;28;20024;-77
2022/09/27 11:35:06;;;;;;;0.85;0.70;;;14.80;99.90;;;;;;5035999;28;20025;-78
2022/09/27 11:37:35;;;;;;;3.63;2.15;;;14.70;99.90;;;;;;5036786;28;20083;-78
2022/09/27 11:40:03;;;;;;;2.13;1.02;;;14.60;99.90;;;;;;5053694;28;20032;-78
2022/09/27 11:42:55;;;;;;;1.00;0.82;;;14.40;99.90;;;;;;5054028;28;20025;-78
2022/09/27 11:45:43;;;;;;;2.75;1.05;;;14.30;99.90;;;;;;5031764;28;20583;-78
2022/09/27 11:48:34;;;;;;;0.90;0.80;;;14.10;99.90;;;;;;5054075;28;20032;-77
2022/09/27 11:51:33;;;;;;;0.88;0.73;;;14.20;99.90;;;;;;5036450;28;20029;-78
2022/09/27 11:54:08;;;;;;;0.90;0.73;;;14.20;99.90;;;;;;5036519;28;20029;-78
2022/09/27 11:56:57;;;;;;;2.05;0.88;;;14.30;99.90;;;;;;5035791;28;20449;-79
2022/09/27 12:00:01;;;;;;;0.85;0.75;;;14.40;99.90;;;;;;5036194;28;20148;-77
2022/09/27 12:02:57;;;;;;;0.80;0.77;;;14.40;99.90;;;;;;5036541;28;20116;-77
2022/09/27 12:05:32;;;;;;;1.17;0.60;;;14.50;99.90;;;;;;5036069;28;20025;-78
2022/09/27 12:07:57;;;;;;;1.00;0.70;;;14.60;99.90;;;;;;5053682;28;20033;-78
2022/09/27 12:10:23;;;;;;;1.88;0.90;;;14.50;99.90;;;;;;5035600;28;20036;-79
2022/09/27 12:12:53;;;;;;;3.60;0.65;;;14.60;99.90;;;;;;5035492;28;20031;-79
2022/09/27 12:15:29;;;;;;;;;;;14.70;99.90;;;;;;5036005;28;20547;-78
2022/09/27 12:18:41;;;;;;;0.88;0.85;;;14.70;99.90;;;;;;5053883;28;19904;-78
2022/09/27 12:21:09;;;;;;;0.60;0.60;;;14.80;99.90;;;;;;5048426;28;20479;-78
2022/09/27 12:23:48;;;;;;;2.08;0.90;;;15.10;99.90;;;;;;5035852;28;20060;-78
2022/09/27 12:26:19;;;;;;;1.00;0.93;;;15.10;99.90;;;;;;5035846;28;20032;-78
2022/09/27 12:28:49;;;;;;;3.35;0.80;;;15.10;99.90;;;;;;5035891;28;20124;-78
2022/09/27 12:31:19;;;;;;;0.60;0.52;;;14.90;99.90;;;;;;5035956;28;20121;-79
2022/09/27 12:34:09;;;;;;;1.35;0.90;;;14.90;99.90;;;;;;5035852;28;20053;-79
2022/09/27 12:36:42;;;;;;;1.40;0.60;;;14.80;99.90;;;;;;5035654;28;20031;-78
2022/09/27 12:39:16;;;;;;;1.17;0.65;;;14.80;99.90;;;;;;5053643;28;20064;-78
2022/09/27 12:41:50;;;;;;;0.82;0.68;;;14.70;99.90;;;;;;5035675;28;20100;-79
2022/09/27 12:44:16;;;;;;;1.05;0.60;;;14.60;99.90;;;;;;5035587;28;20091;-78
2022/09/27 12:47:14;;;;;;;1.60;0.32;;;14.60;99.90;;;;;;5052238;28;20021;-78
2022/09/27 12:49:58;;;;;;;0.50;0.50;;;14.60;99.90;;;;;;5035796;28;20029;-78
2022/09/27 12:52:29;;;;;;;1.52;0.60;;;14.50;99.90;;;;;;5035593;28;20033;-77
2022/09/27 12:55:14;;;;;;;1.38;0.52;;;14.40;99.90;;;;;;5053292;28;20087;-78
2022/09/27 12:57:50;;;;;;;0.68;0.40;;;14.30;99.90;;;;;;5035103;28;20033;-76
2022/09/27 13:00:21;;;;;;;3.05;0.68;;;14.20;99.90;;;;;;5052926;28;20052;-78
2022/09/27 13:02:53;;;;;;;2.17;0.55;;;14.20;99.90;;;;;;5038633;28;20516;-79
2022/09/27 13:05:55;;;;;;;1.13;0.50;;;14.20;99.90;;;;;;5039025;28;20025;-78
2022/09/27 13:08:42;;;;;;;0.40;0.30;;;14.20;99.90;;;;;;5039155;28;20029;-77
2022/09/27 13:11:14;;;;;;;1.65;0.55;;;14.20;99.90;;;;;;5039225;28;20036;-78
2022/09/27 13:13:40;;;;;;;0.77;0.55;;;14.20;99.90;;;;;;5056680;28;20032;-79
2022/09/27 13:16:07;;;;;;;1.33;0.73;;;14.10;99.90;;;;;;5056917;28;20021;-78
2022/09/27 13:19:01;;;;;;;0.50;0.50;;;14.10;99.90;;;;;;5056647;28;20033;-78
2022/09/27 13:21:46;;;;;;;1.63;0.68;;;14.10;99.90;;;;;;5030603;28;20499;-78
2022/09/27 13:24:39;;;;;;;2.28;0.50;;;14.10;99.90;;;;;;5038790;28;20477;-77